sensor_id;sensor_type;location;lat;lon;timestamp;temperature;humidity
16955;DHT22;8594;52.052;8.354;2023-04-25T00:02:04;8.70;99.90
16955;DHT22;8594;52.052;8.354;2023-04-25T00:04:32;8.50;99.90
16955;DHT22;8594;52.052;8.354;2023-04-25T00:06:59;8.50;99.90
16955;DHT22;8594;52.052;8.354;2023-04-25T00:09:28;8.60;99.90
16955;DHT22;8594;52.052;8.354;2023-04-25T00:11:54;8.60;99.90
16955;DHT22;8594;52.052;8.354;2023-04-25T00:14:21;8.60;99.90
16955;DHT22;8594;52.052;8.354;2023-04-25T00:16:48;8.70;99.90
16955;DHT22;8594;52.052;8.354;2023-04-25T00:19:18;8.70;99.90
16955;DHT22;8594;52.052;8.354;2023-04-25T00:21:45;8.50;99.90
16955;DHT22;8594;52.052;8.354;2023-04-25T00:24:12;8.70;99.90
16955;DHT22;8594;52.052;8.354;2023-04-25T00:26:39;8.70;99.90
16955;DHT22;8594;52.052;8.354;2023-04-25T00:29:05;8.70;99.90
16955;DHT22;8594;52.052;8.354;2023-04-25T00:31:32;8.90;99.90
16955;DHT22;8594;52.052;8.354;2023-04-25T00:33:59;8.90;99.90
16955;DHT22;8594;52.052;8.354;2023-04-25T00:36:27;8.80;99.90
16955;DHT22;8594;52.052;8.354;2023-04-25T00:38:55;8.80;99.90
16955;DHT22;8594;52.052;8.354;2023-04-25T00:41:22;8.50;99.90
16955;DHT22;8594;52.052;8.354;2023-04-25T00:43:52;8.60;99.90
16955;DHT22;8594;52.052;8.354;2023-04-25T00:46:20;8.70;99.90
16955;DHT22;8594;52.052;8.354;2023-04-25T00:48:47;8.50;99.90
16955;DHT22;8594;52.052;8.354;2023-04-25T00:51:19;8.80;99.90
16955;DHT22;8594;52.052;8.354;2023-04-25T00:53:49;8.70;99.90
16955;DHT22;8594;52.052;8.354;2023-04-25T00:56:16;8.60;99.90
16955;DHT22;8594;52.052;8.354;2023-04-25T00:58:44;8.60;99.90
16955;DHT22;8594;52.052;8.354;2023-04-25T01:01:11;8.70;99.90
16955;DHT22;8594;52.052;8.354;2023-04-25T01:03:39;8.80;99.90
16955;DHT22;8594;52.052;8.354;2023-04-25T01:06:07;8.50;99.90
16955;DHT22;8594;52.052;8.354;2023-04-25T01:08:36;8.40;99.90
16955;DHT22;8594;52.052;8.354;2023-04-25T01:11:05;8.50;99.90
16955;DHT22;8594;52.052;8.354;2023-04-25T01:13:33;8.40;99.90
16955;DHT22;8594;52.052;8.354;2023-04-25T01:16:02;8.40;99.90
16955;DHT22;8594;52.052;8.354;2023-04-25T01:18:29;8.30;99.90
16955;DHT22;8594;52.052;8.354;2023-04-25T01:23:32;8.50;99.90
16955;DHT22;8594;52.052;8.354;2023-04-25T01:26:00;8.50;99.90
16955;DHT22;8594;52.052;8.354;2023-04-25T01:28:27;8.40;99.90
16955;DHT22;8594;52.052;8.354;2023-04-25T01:30:54;8.30;99.90
16955;DHT22;8594;52.052;8.354;2023-04-25T01:33:23;8.20;99.90
16955;DHT22;8594;52.052;8.354;2023-04-25T01:35:50;8.30;99.90
16955;DHT22;8594;52.052;8.354;2023-04-25T01:38:18;8.30;99.90
16955;DHT22;8594;52.052;8.354;2023-04-25T01:40:45;8.20;99.90
16955;DHT22;8594;52.052;8.354;2023-04-25T01:43:12;8.30;99.90
16955;DHT22;8594;52.052;8.354;2023-04-25T01:45:40;8.30;99.90
16955;DHT22;8594;52.052;8.354;2023-04-25T01:48:07;8.50;99.90
16955;DHT22;8594;52.052;8.354;2023-04-25T01:50:35;8.30;99.90
16955;DHT22;8594;52.052;8.354;2023-04-25T01:53:01;8.40;99.90
16955;DHT22;8594;52.052;8.354;2023-04-25T01:55:30;8.20;99.90
16955;DHT22;8594;52.052;8.354;2023-04-25T01:57:56;8.20;99.90
16955;DHT22;8594;52.052;8.354;2023-04-25T02:00:24;8.40;99.90
16955;DHT22;8594;52.052;8.354;2023-04-25T02:02:51;8.50;99.90
16955;DHT22;8594;52.052;8.354;2023-04-25T02:05:19;8.40;99.90
16955;DHT22;8594;52.052;8.354;2023-04-25T02:07:46;8.40;99.90
16955;DHT22;8594;52.052;8.354;2023-04-25T02:10:14;8.40;99.90
16955;DHT22;8594;52.052;8.354;2023-04-25T02:12:42;8.50;99.90
16955;DHT22;8594;52.052;8.354;2023-04-25T02:15:09;8.40;99.90
16955;DHT22;8594;52.052;8.354;2023-04-25T02:17:37;8.50;99.90
16955;DHT22;8594;52.052;8.354;2023-04-25T02:20:05;8.50;99.90
16955;DHT22;8594;52.052;8.354;2023-04-25T02:22:33;8.50;99.90
16955;DHT22;8594;52.052;8.354;2023-04-25T02:25:01;8.60;99.90
16955;DHT22;8594;52.052;8.354;2023-04-25T02:27:29;8.80;99.90
16955;DHT22;8594;52.052;8.354;2023-04-25T02:29:57;8.50;99.90
16955;DHT22;8594;52.052;8.354;2023-04-25T02:32:24;8.00;99.90
16955;DHT22;8594;52.052;8.354;2023-04-25T02:34:52;7.70;99.90
16955;DHT22;8594;52.052;8.354;2023-04-25T02:37:19;7.60;99.90
16955;DHT22;8594;52.052;8.354;2023-04-25T02:39:45;7.60;99.90
16955;DHT22;8594;52.052;8.354;2023-04-25T02:42:12;7.60;99.90
16955;DHT22;8594;52.052;8.354;2023-04-25T02:44:39;7.50;99.90
16955;DHT22;8594;52.052;8.354;2023-04-25T02:47:07;7.40;99.90
16955;DHT22;8594;52.052;8.354;2023-04-25T02:49:34;7.50;99.90
16955;DHT22;8594;52.052;8.354;2023-04-25T02:52:01;7.50;99.90
16955;DHT22;8594;52.052;8.354;2023-04-25T02:54:27;7.60;99.90
16955;DHT22;8594;52.052;8.354;2023-04-25T02:56:54;7.70;99.90
16955;DHT22;8594;52.052;8.354;2023-04-25T02:59:21;7.70;99.90
16955;DHT22;8594;52.052;8.354;2023-04-25T03:01:48;7.70;99.90
16955;DHT22;8594;52.052;8.354;2023-04-25T03:04:16;7.70;99.90
16955;DHT22;8594;52.052;8.354;2023-04-25T03:06:44;7.60;99.90
16955;DHT22;8594;52.052;8.354;2023-04-25T03:09:11;7.70;99.90
16955;DHT22;8594;52.052;8.354;2023-04-25T03:11:38;7.80;99.90
16955;DHT22;8594;52.052;8.354;2023-04-25T03:14:05;8.10;99.90
16955;DHT22;8594;52.052;8.354;2023-04-25T03:16:32;8.10;99.90
16955;DHT22;8594;52.052;8.354;2023-04-25T03:18:59;8.20;99.90
16955;DHT22;8594;52.052;8.354;2023-04-25T03:21:27;8.30;99.90
16955;DHT22;8594;52.052;8.354;2023-04-25T03:23:54;8.30;99.90
16955;DHT22;8594;52.052;8.354;2023-04-25T03:26:20;8.40;99.90
16955;DHT22;8594;52.052;8.354;2023-04-25T03:28:47;8.30;99.90
16955;DHT22;8594;52.052;8.354;2023-04-25T03:31:14;8.10;99.90
16955;DHT22;8594;52.052;8.354;2023-04-25T03:33:41;8.20;99.90
16955;DHT22;8594;52.052;8.354;2023-04-25T03:36:08;8.10;99.90
16955;DHT22;8594;52.052;8.354;2023-04-25T03:38:37;8.30;99.90
16955;DHT22;8594;52.052;8.354;2023-04-25T03:41:04;8.20;99.90
16955;DHT22;8594;52.052;8.354;2023-04-25T03:43:30;8.20;99.90
16955;DHT22;8594;52.052;8.354;2023-04-25T03:45:57;8.30;99.90
16955;DHT22;8594;52.052;8.354;2023-04-25T03:48:24;8.40;99.90
16955;DHT22;8594;52.052;8.354;2023-04-25T03:50:51;8.40;99.90
16955;DHT22;8594;52.052;8.354;2023-04-25T03:53:18;8.30;99.90
16955;DHT22;8594;52.052;8.354;2023-04-25T03:55:47;8.40;99.90
16955;DHT22;8594;52.052;8.354;2023-04-25T03:58:14;8.50;99.90
16955;DHT22;8594;52.052;8.354;2023-04-25T04:00:40;8.40;99.90
16955;DHT22;8594;52.052;8.354;2023-04-25T04:03:07;8.40;99.90
16955;DHT22;8594;52.052;8.354;2023-04-25T04:05:34;8.20;99.90
16955;DHT22;8594;52.052;8.354;2023-04-25T04:08:02;8.10;99.90
16955;DHT22;8594;52.052;8.354;2023-04-25T04:10:29;8.00;99.90
16955;DHT22;8594;52.052;8.354;2023-04-25T04:12:57;8.10;99.90
16955;DHT22;8594;52.052;8.354;2023-04-25T04:15:24;8.10;99.90
16955;DHT22;8594;52.052;8.354;2023-04-25T04:17:51;8.10;99.90
16955;DHT22;8594;52.052;8.354;2023-04-25T04:20:17;8.10;99.90
16955;DHT22;8594;52.052;8.354;2023-04-25T04:22:44;8.00;99.90
16955;DHT22;8594;52.052;8.354;2023-04-25T04:25:11;7.80;99.90
16955;DHT22;8594;52.052;8.354;2023-04-25T04:27:38;7.80;99.90
16955;DHT22;8594;52.052;8.354;2023-04-25T04:30:08;7.80;99.90
16955;DHT22;8594;52.052;8.354;2023-04-25T04:32:35;7.70;99.90
16955;DHT22;8594;52.052;8.354;2023-04-25T04:35:03;7.60;99.90
16955;DHT22;8594;52.052;8.354;2023-04-25T04:37:31;7.70;99.90
16955;DHT22;8594;52.052;8.354;2023-04-25T04:39:59;7.90;99.90
16955;DHT22;8594;52.052;8.354;2023-04-25T04:42:27;8.00;99.90
16955;DHT22;8594;52.052;8.354;2023-04-25T04:44:54;8.00;99.90
16955;DHT22;8594;52.052;8.354;2023-04-25T04:47:22;7.90;99.90
16955;DHT22;8594;52.052;8.354;2023-04-25T04:49:49;7.90;99.90
16955;DHT22;8594;52.052;8.354;2023-04-25T04:52:16;8.00;99.90
16955;DHT22;8594;52.052;8.354;2023-04-25T04:54:43;8.00;99.90
16955;DHT22;8594;52.052;8.354;2023-04-25T04:57:10;8.00;99.90
16955;DHT22;8594;52.052;8.354;2023-04-25T04:59:36;8.00;99.90
16955;DHT22;8594;52.052;8.354;2023-04-25T05:02:03;8.00;99.90
16955;DHT22;8594;52.052;8.354;2023-04-25T05:04:31;8.20;99.90
16955;DHT22;8594;52.052;8.354;2023-04-25T05:06:58;8.00;99.90
16955;DHT22;8594;52.052;8.354;2023-04-25T05:09:25;7.80;99.90
16955;DHT22;8594;52.052;8.354;2023-04-25T05:11:52;7.80;99.90
16955;DHT22;8594;52.052;8.354;2023-04-25T05:14:20;7.70;99.90
16955;DHT22;8594;52.052;8.354;2023-04-25T05:16:47;7.70;99.90
16955;DHT22;8594;52.052;8.354;2023-04-25T05:19:13;7.70;99.90
16955;DHT22;8594;52.052;8.354;2023-04-25T05:21:42;7.80;99.90
16955;DHT22;8594;52.052;8.354;2023-04-25T05:24:08;7.80;99.90
16955;DHT22;8594;52.052;8.354;2023-04-25T05:26:35;7.70;99.90
16955;DHT22;8594;52.052;8.354;2023-04-25T05:29:02;7.80;99.90
16955;DHT22;8594;52.052;8.354;2023-04-25T05:31:29;7.90;99.90
16955;DHT22;8594;52.052;8.354;2023-04-25T05:33:55;7.80;99.90
16955;DHT22;8594;52.052;8.354;2023-04-25T05:36:22;8.00;99.90
16955;DHT22;8594;52.052;8.354;2023-04-25T05:38:50;8.10;99.90
16955;DHT22;8594;52.052;8.354;2023-04-25T05:41:17;8.10;99.90
16955;DHT22;8594;52.052;8.354;2023-04-25T05:43:44;8.10;99.90
16955;DHT22;8594;52.052;8.354;2023-04-25T05:46:14;8.30;99.90
16955;DHT22;8594;52.052;8.354;2023-04-25T05:48:40;8.20;99.90
16955;DHT22;8594;52.052;8.354;2023-04-25T05:51:07;8.10;99.90
16955;DHT22;8594;52.052;8.354;2023-04-25T05:53:34;8.10;99.90
16955;DHT22;8594;52.052;8.354;2023-04-25T05:56:02;8.20;99.90
16955;DHT22;8594;52.052;8.354;2023-04-25T05:58:29;8.20;99.90
16955;DHT22;8594;52.052;8.354;2023-04-25T06:00:56;8.10;99.90
16955;DHT22;8594;52.052;8.354;2023-04-25T06:03:23;8.20;99.90
16955;DHT22;8594;52.052;8.354;2023-04-25T06:05:50;8.20;99.90
16955;DHT22;8594;52.052;8.354;2023-04-25T06:08:17;8.30;99.90
16955;DHT22;8594;52.052;8.354;2023-04-25T06:10:44;8.20;99.90
16955;DHT22;8594;52.052;8.354;2023-04-25T06:13:12;8.30;99.90
16955;DHT22;8594;52.052;8.354;2023-04-25T06:15:39;8.50;99.90
16955;DHT22;8594;52.052;8.354;2023-04-25T06:18:06;8.50;99.90
16955;DHT22;8594;52.052;8.354;2023-04-25T06:20:33;8.70;99.90
16955;DHT22;8594;52.052;8.354;2023-04-25T06:23:00;8.80;99.90
16955;DHT22;8594;52.052;8.354;2023-04-25T06:25:27;8.70;99.90
16955;DHT22;8594;52.052;8.354;2023-04-25T06:27:53;8.60;99.90
16955;DHT22;8594;52.052;8.354;2023-04-25T06:30:22;8.70;99.90
16955;DHT22;8594;52.052;8.354;2023-04-25T06:32:51;8.50;99.90
16955;DHT22;8594;52.052;8.354;2023-04-25T06:35:18;8.40;99.90
16955;DHT22;8594;52.052;8.354;2023-04-25T06:37:45;8.50;99.90
16955;DHT22;8594;52.052;8.354;2023-04-25T06:40:11;8.50;99.90
16955;DHT22;8594;52.052;8.354;2023-04-25T06:42:38;8.70;99.90
16955;DHT22;8594;52.052;8.354;2023-04-25T06:45:06;8.90;99.90
16955;DHT22;8594;52.052;8.354;2023-04-25T06:47:35;8.90;99.90
16955;DHT22;8594;52.052;8.354;2023-04-25T06:50:02;8.80;99.90
16955;DHT22;8594;52.052;8.354;2023-04-25T06:52:29;8.80;99.90
16955;DHT22;8594;52.052;8.354;2023-04-25T06:54:56;8.90;99.90
16955;DHT22;8594;52.052;8.354;2023-04-25T06:57:23;9.00;99.90
16955;DHT22;8594;52.052;8.354;2023-04-25T06:59:50;8.80;99.90
16955;DHT22;8594;52.052;8.354;2023-04-25T07:02:17;9.00;99.90
16955;DHT22;8594;52.052;8.354;2023-04-25T07:04:45;8.80;99.90
16955;DHT22;8594;52.052;8.354;2023-04-25T07:07:12;8.80;99.90
16955;DHT22;8594;52.052;8.354;2023-04-25T07:09:39;8.80;99.90
16955;DHT22;8594;52.052;8.354;2023-04-25T07:12:06;8.90;99.90
16955;DHT22;8594;52.052;8.354;2023-04-25T07:14:32;8.90;99.90
16955;DHT22;8594;52.052;8.354;2023-04-25T07:16:59;9.10;99.90
16955;DHT22;8594;52.052;8.354;2023-04-25T07:19:26;9.30;99.90
16955;DHT22;8594;52.052;8.354;2023-04-25T07:21:56;9.30;99.90
16955;DHT22;8594;52.052;8.354;2023-04-25T07:24:23;9.20;99.90
16955;DHT22;8594;52.052;8.354;2023-04-25T07:26:49;9.30;99.90
16955;DHT22;8594;52.052;8.354;2023-04-25T07:29:16;9.40;99.90
16955;DHT22;8594;52.052;8.354;2023-04-25T07:31:43;9.40;99.90
16955;DHT22;8594;52.052;8.354;2023-04-25T07:34:10;9.20;99.90
16955;DHT22;8594;52.052;8.354;2023-04-25T07:36:37;9.40;99.90
16955;DHT22;8594;52.052;8.354;2023-04-25T07:39:05;9.40;99.90
16955;DHT22;8594;52.052;8.354;2023-04-25T07:41:32;9.50;99.90
16955;DHT22;8594;52.052;8.354;2023-04-25T07:43:58;9.60;99.90
16955;DHT22;8594;52.052;8.354;2023-04-25T07:46:25;9.60;99.90
16955;DHT22;8594;52.052;8.354;2023-04-25T07:48:52;9.80;99.90
16955;DHT22;8594;52.052;8.354;2023-04-25T07:51:19;9.70;99.90
16955;DHT22;8594;52.052;8.354;2023-04-25T07:53:47;9.90;99.90
16955;DHT22;8594;52.052;8.354;2023-04-25T07:56:15;10.00;99.90
16955;DHT22;8594;52.052;8.354;2023-04-25T07:58:42;10.10;99.90
16955;DHT22;8594;52.052;8.354;2023-04-25T08:01:09;10.20;99.90
16955;DHT22;8594;52.052;8.354;2023-04-25T08:03:35;10.60;99.90
16955;DHT22;8594;52.052;8.354;2023-04-25T08:06:02;10.70;99.90
16955;DHT22;8594;52.052;8.354;2023-04-25T08:08:30;10.60;99.90
16955;DHT22;8594;52.052;8.354;2023-04-25T08:10:57;10.00;99.90
16955;DHT22;8594;52.052;8.354;2023-04-25T08:13:25;10.00;99.90
16955;DHT22;8594;52.052;8.354;2023-04-25T08:15:52;10.00;99.90
16955;DHT22;8594;52.052;8.354;2023-04-25T08:18:18;10.10;99.90
16955;DHT22;8594;52.052;8.354;2023-04-25T08:20:45;10.50;99.90
16955;DHT22;8594;52.052;8.354;2023-04-25T08:23:12;10.70;99.90
16955;DHT22;8594;52.052;8.354;2023-04-25T08:25:39;10.50;99.90
16955;DHT22;8594;52.052;8.354;2023-04-25T08:28:06;10.30;99.90
16955;DHT22;8594;52.052;8.354;2023-04-25T08:30:34;10.70;99.90
16955;DHT22;8594;52.052;8.354;2023-04-25T08:33:01;10.70;99.90
16955;DHT22;8594;52.052;8.354;2023-04-25T08:35:28;10.60;99.90
16955;DHT22;8594;52.052;8.354;2023-04-25T08:37:55;10.50;99.90
16955;DHT22;8594;52.052;8.354;2023-04-25T08:40:22;10.10;99.90
16955;DHT22;8594;52.052;8.354;2023-04-25T08:42:53;10.20;99.90
16955;DHT22;8594;52.052;8.354;2023-04-25T08:45:21;10.40;99.90
16955;DHT22;8594;52.052;8.354;2023-04-25T08:47:51;10.50;99.90
16955;DHT22;8594;52.052;8.354;2023-04-25T08:50:19;10.80;99.90
16955;DHT22;8594;52.052;8.354;2023-04-25T08:52:49;10.90;99.90
16955;DHT22;8594;52.052;8.354;2023-04-25T08:55:18;11.30;99.90
16955;DHT22;8594;52.052;8.354;2023-04-25T08:57:47;11.60;99.90
16955;DHT22;8594;52.052;8.354;2023-04-25T09:00:14;11.70;99.90
16955;DHT22;8594;52.052;8.354;2023-04-25T09:02:42;11.50;99.90
16955;DHT22;8594;52.052;8.354;2023-04-25T09:05:12;11.70;99.90
16955;DHT22;8594;52.052;8.354;2023-04-25T09:07:40;11.80;99.90
16955;DHT22;8594;52.052;8.354;2023-04-25T09:10:07;11.70;99.90
16955;DHT22;8594;52.052;8.354;2023-04-25T09:12:35;11.60;99.90
16955;DHT22;8594;52.052;8.354;2023-04-25T09:15:04;11.80;99.90
16955;DHT22;8594;52.052;8.354;2023-04-25T09:17:33;11.70;99.90
16955;DHT22;8594;52.052;8.354;2023-04-25T09:20:07;12.80;99.90
16955;DHT22;8594;52.052;8.354;2023-04-25T09:22:37;12.90;99.90
16955;DHT22;8594;52.052;8.354;2023-04-25T09:25:08;12.90;99.90
16955;DHT22;8594;52.052;8.354;2023-04-25T09:27:37;13.30;99.90
16955;DHT22;8594;52.052;8.354;2023-04-25T09:30:17;12.50;99.90
16955;DHT22;8594;52.052;8.354;2023-04-25T09:32:44;12.30;99.90
16955;DHT22;8594;52.052;8.354;2023-04-25T09:35:11;12.40;99.90
16955;DHT22;8594;52.052;8.354;2023-04-25T09:37:51;12.40;99.90
16955;DHT22;8594;52.052;8.354;2023-04-25T09:40:18;12.10;99.90
16955;DHT22;8594;52.052;8.354;2023-04-25T09:42:45;11.80;99.90
16955;DHT22;8594;52.052;8.354;2023-04-25T09:45:12;11.70;99.90
16955;DHT22;8594;52.052;8.354;2023-04-25T09:47:40;11.90;99.90
16955;DHT22;8594;52.052;8.354;2023-04-25T09:50:14;11.70;99.90
16955;DHT22;8594;52.052;8.354;2023-04-25T09:52:41;11.40;99.90
16955;DHT22;8594;52.052;8.354;2023-04-25T09:55:09;11.20;99.90
16955;DHT22;8594;52.052;8.354;2023-04-25T09:57:36;10.70;99.90
16955;DHT22;8594;52.052;8.354;2023-04-25T10:00:06;10.60;99.90
16955;DHT22;8594;52.052;8.354;2023-04-25T10:02:38;10.70;99.90
16955;DHT22;8594;52.052;8.354;2023-04-25T10:05:10;10.40;99.90
16955;DHT22;8594;52.052;8.354;2023-04-25T10:07:38;10.20;99.90
16955;DHT22;8594;52.052;8.354;2023-04-25T10:10:06;10.00;99.90
16955;DHT22;8594;52.052;8.354;2023-04-25T10:12:37;9.80;99.90
16955;DHT22;8594;52.052;8.354;2023-04-25T10:15:06;9.60;99.90
16955;DHT22;8594;52.052;8.354;2023-04-25T10:17:35;9.60;99.90
16955;DHT22;8594;52.052;8.354;2023-04-25T10:20:03;9.60;99.90
16955;DHT22;8594;52.052;8.354;2023-04-25T10:22:34;9.50;99.90
16955;DHT22;8594;52.052;8.354;2023-04-25T10:25:04;9.80;99.90
16955;DHT22;8594;52.052;8.354;2023-04-25T10:27:35;10.30;99.90
16955;DHT22;8594;52.052;8.354;2023-04-25T10:30:04;10.80;99.90
16955;DHT22;8594;52.052;8.354;2023-04-25T10:32:35;11.30;99.90
16955;DHT22;8594;52.052;8.354;2023-04-25T10:35:14;12.00;99.90
16955;DHT22;8594;52.052;8.354;2023-04-25T10:37:58;12.50;99.90
16955;DHT22;8594;52.052;8.354;2023-04-25T10:40:30;13.10;99.90
16955;DHT22;8594;52.052;8.354;2023-04-25T10:43:36;13.20;99.90
16955;DHT22;8594;52.052;8.354;2023-04-25T10:46:16;12.40;99.90
16955;DHT22;8594;52.052;8.354;2023-04-25T10:48:49;12.50;99.90
16955;DHT22;8594;52.052;8.354;2023-04-25T10:51:18;12.00;99.90
16955;DHT22;8594;52.052;8.354;2023-04-25T10:53:47;11.80;99.90
16955;DHT22;8594;52.052;8.354;2023-04-25T10:56:24;11.60;99.90
16955;DHT22;8594;52.052;8.354;2023-04-25T10:59:04;11.60;99.90
16955;DHT22;8594;52.052;8.354;2023-04-25T11:01:37;11.70;99.90
16955;DHT22;8594;52.052;8.354;2023-04-25T11:04:19;11.90;99.90
16955;DHT22;8594;52.052;8.354;2023-04-25T11:06:58;12.00;99.90
16955;DHT22;8594;52.052;8.354;2023-04-25T11:09:32;12.30;99.90
16955;DHT22;8594;52.052;8.354;2023-04-25T11:12:00;12.70;99.90
16955;DHT22;8594;52.052;8.354;2023-04-25T11:14:28;12.70;99.90
16955;DHT22;8594;52.052;8.354;2023-04-25T11:16:56;12.40;99.90
16955;DHT22;8594;52.052;8.354;2023-04-25T11:19:24;12.10;99.90
16955;DHT22;8594;52.052;8.354;2023-04-25T11:21:55;12.20;99.90
16955;DHT22;8594;52.052;8.354;2023-04-25T11:24:26;12.00;99.90
16955;DHT22;8594;52.052;8.354;2023-04-25T11:26:53;11.80;99.90
16955;DHT22;8594;52.052;8.354;2023-04-25T11:29:22;11.60;99.90
16955;DHT22;8594;52.052;8.354;2023-04-25T11:31:50;11.60;99.90
16955;DHT22;8594;52.052;8.354;2023-04-25T11:34:17;11.60;99.90
16955;DHT22;8594;52.052;8.354;2023-04-25T11:36:45;11.40;99.90
16955;DHT22;8594;52.052;8.354;2023-04-25T11:39:12;11.10;99.90
16955;DHT22;8594;52.052;8.354;2023-04-25T11:41:41;10.70;99.90
16955;DHT22;8594;52.052;8.354;2023-04-25T11:44:08;10.20;99.90
16955;DHT22;8594;52.052;8.354;2023-04-25T11:46:35;9.80;99.90
16955;DHT22;8594;52.052;8.354;2023-04-25T11:49:03;9.40;99.90
16955;DHT22;8594;52.052;8.354;2023-04-25T11:51:36;9.60;99.90
16955;DHT22;8594;52.052;8.354;2023-04-25T11:54:05;9.70;99.90
16955;DHT22;8594;52.052;8.354;2023-04-25T11:56:32;10.00;99.90
16955;DHT22;8594;52.052;8.354;2023-04-25T11:59:00;10.20;99.90
16955;DHT22;8594;52.052;8.354;2023-04-25T12:01:29;10.20;99.90
16955;DHT22;8594;52.052;8.354;2023-04-25T12:03:57;10.30;99.90
16955;DHT22;8594;52.052;8.354;2023-04-25T12:06:29;10.10;99.90
16955;DHT22;8594;52.052;8.354;2023-04-25T12:09:00;10.10;99.90
16955;DHT22;8594;52.052;8.354;2023-04-25T12:11:29;10.10;99.90
16955;DHT22;8594;52.052;8.354;2023-04-25T12:14:02;10.40;99.90
16955;DHT22;8594;52.052;8.354;2023-04-25T12:16:30;10.50;99.90
16955;DHT22;8594;52.052;8.354;2023-04-25T12:19:06;10.70;99.90
16955;DHT22;8594;52.052;8.354;2023-04-25T12:21:34;11.00;99.90
16955;DHT22;8594;52.052;8.354;2023-04-25T12:24:10;11.20;99.90
16955;DHT22;8594;52.052;8.354;2023-04-25T12:26:51;11.40;99.90
16955;DHT22;8594;52.052;8.354;2023-04-25T12:29:21;11.90;99.90
16955;DHT22;8594;52.052;8.354;2023-04-25T12:31:50;12.10;99.90
16955;DHT22;8594;52.052;8.354;2023-04-25T12:34:18;12.50;99.90
16955;DHT22;8594;52.052;8.354;2023-04-25T12:36:46;12.70;99.90
16955;DHT22;8594;52.052;8.354;2023-04-25T12:39:15;12.70;99.90
16955;DHT22;8594;52.052;8.354;2023-04-25T12:41:42;12.60;99.90
16955;DHT22;8594;52.052;8.354;2023-04-25T12:44:10;12.20;99.90
16955;DHT22;8594;52.052;8.354;2023-04-25T12:46:37;12.50;99.90
16955;DHT22;8594;52.052;8.354;2023-04-25T12:49:06;12.50;99.90
16955;DHT22;8594;52.052;8.354;2023-04-25T12:51:34;12.70;99.90
16955;DHT22;8594;52.052;8.354;2023-04-25T12:54:03;12.80;99.90
16955;DHT22;8594;52.052;8.354;2023-04-25T12:56:32;12.20;99.90
16955;DHT22;8594;52.052;8.354;2023-04-25T12:58:59;12.00;99.90
16955;DHT22;8594;52.052;8.354;2023-04-25T13:01:26;11.90;99.90
16955;DHT22;8594;52.052;8.354;2023-04-25T13:03:53;11.50;99.90
16955;DHT22;8594;52.052;8.354;2023-04-25T13:06:20;10.20;99.90
16955;DHT22;8594;52.052;8.354;2023-04-25T13:08:48;9.40;99.90
16955;DHT22;8594;52.052;8.354;2023-04-25T13:11:16;9.10;99.90
16955;DHT22;8594;52.052;8.354;2023-04-25T13:13:43;9.00;99.90
16955;DHT22;8594;52.052;8.354;2023-04-25T13:16:10;9.10;99.90
16955;DHT22;8594;52.052;8.354;2023-04-25T13:18:39;9.10;99.90
16955;DHT22;8594;52.052;8.354;2023-04-25T13:21:06;9.10;99.90
16955;DHT22;8594;52.052;8.354;2023-04-25T13:23:33;9.30;99.90
16955;DHT22;8594;52.052;8.354;2023-04-25T13:25:59;9.60;99.90
16955;DHT22;8594;52.052;8.354;2023-04-25T13:28:28;10.10;99.90
16955;DHT22;8594;52.052;8.354;2023-04-25T13:30:55;10.50;99.90
16955;DHT22;8594;52.052;8.354;2023-04-25T13:33:22;10.80;99.90
16955;DHT22;8594;52.052;8.354;2023-04-25T13:35:49;10.70;99.90
16955;DHT22;8594;52.052;8.354;2023-04-25T13:38:20;11.00;99.90
16955;DHT22;8594;52.052;8.354;2023-04-25T13:40:47;11.40;99.90
16955;DHT22;8594;52.052;8.354;2023-04-25T13:43:15;11.60;99.90
16955;DHT22;8594;52.052;8.354;2023-04-25T13:45:44;11.80;99.90
16955;DHT22;8594;52.052;8.354;2023-04-25T13:48:10;12.00;99.90
16955;DHT22;8594;52.052;8.354;2023-04-25T13:50:37;12.20;99.90
16955;DHT22;8594;52.052;8.354;2023-04-25T13:53:04;12.60;99.90
16955;DHT22;8594;52.052;8.354;2023-04-25T13:55:31;12.70;99.90
16955;DHT22;8594;52.052;8.354;2023-04-25T13:57:57;12.70;99.90
16955;DHT22;8594;52.052;8.354;2023-04-25T14:00:25;12.40;99.90
16955;DHT22;8594;52.052;8.354;2023-04-25T14:02:53;12.30;99.90
16955;DHT22;8594;52.052;8.354;2023-04-25T14:05:20;12.40;99.90
16955;DHT22;8594;52.052;8.354;2023-04-25T14:07:48;12.00;99.90
16955;DHT22;8594;52.052;8.354;2023-04-25T14:10:15;12.00;99.90
16955;DHT22;8594;52.052;8.354;2023-04-25T14:12:42;12.00;99.90
16955;DHT22;8594;52.052;8.354;2023-04-25T14:15:09;11.80;99.90
16955;DHT22;8594;52.052;8.354;2023-04-25T14:17:37;11.80;99.90
16955;DHT22;8594;52.052;8.354;2023-04-25T14:20:08;11.80;99.90
16955;DHT22;8594;52.052;8.354;2023-04-25T14:22:36;11.90;99.90
16955;DHT22;8594;52.052;8.354;2023-04-25T14:25:07;12.30;99.90
16955;DHT22;8594;52.052;8.354;2023-04-25T14:27:35;12.50;99.90
16955;DHT22;8594;52.052;8.354;2023-04-25T14:30:02;12.40;99.90
16955;DHT22;8594;52.052;8.354;2023-04-25T14:32:29;12.30;99.90
16955;DHT22;8594;52.052;8.354;2023-04-25T14:34:57;12.30;99.90
16955;DHT22;8594;52.052;8.354;2023-04-25T14:37:25;12.30;99.90
16955;DHT22;8594;52.052;8.354;2023-04-25T14:39:52;12.30;99.90
16955;DHT22;8594;52.052;8.354;2023-04-25T14:42:19;12.00;99.90
16955;DHT22;8594;52.052;8.354;2023-04-25T14:44:46;11.50;99.90
16955;DHT22;8594;52.052;8.354;2023-04-25T14:47:13;11.50;99.90
16955;DHT22;8594;52.052;8.354;2023-04-25T14:49:41;11.70;99.90
16955;DHT22;8594;52.052;8.354;2023-04-25T14:52:07;11.80;99.90
16955;DHT22;8594;52.052;8.354;2023-04-25T14:54:36;11.80;99.90
16955;DHT22;8594;52.052;8.354;2023-04-25T14:57:02;11.80;99.90
16955;DHT22;8594;52.052;8.354;2023-04-25T14:59:29;11.90;99.90
16955;DHT22;8594;52.052;8.354;2023-04-25T15:01:56;11.70;99.90
16955;DHT22;8594;52.052;8.354;2023-04-25T15:04:23;12.00;99.90
16955;DHT22;8594;52.052;8.354;2023-04-25T15:06:50;11.70;99.90
16955;DHT22;8594;52.052;8.354;2023-04-25T15:09:17;10.90;99.90
16955;DHT22;8594;52.052;8.354;2023-04-25T15:11:45;10.60;99.90
16955;DHT22;8594;52.052;8.354;2023-04-25T15:14:12;10.50;99.90
16955;DHT22;8594;52.052;8.354;2023-04-25T15:16:38;10.30;99.90
16955;DHT22;8594;52.052;8.354;2023-04-25T15:19:05;10.30;99.90
16955;DHT22;8594;52.052;8.354;2023-04-25T15:21:32;10.20;99.90
16955;DHT22;8594;52.052;8.354;2023-04-25T15:23:59;10.30;99.90
16955;DHT22;8594;52.052;8.354;2023-04-25T15:26:28;10.60;99.90
16955;DHT22;8594;52.052;8.354;2023-04-25T15:28:56;11.00;99.90
16955;DHT22;8594;52.052;8.354;2023-04-25T15:31:23;10.80;99.90
16955;DHT22;8594;52.052;8.354;2023-04-25T15:33:50;10.90;99.90
16955;DHT22;8594;52.052;8.354;2023-04-25T15:36:17;10.90;99.90
16955;DHT22;8594;52.052;8.354;2023-04-25T15:38:46;10.70;99.90
16955;DHT22;8594;52.052;8.354;2023-04-25T15:41:12;10.70;99.90
16955;DHT22;8594;52.052;8.354;2023-04-25T15:43:39;11.00;99.90
16955;DHT22;8594;52.052;8.354;2023-04-25T15:46:07;11.20;99.90
16955;DHT22;8594;52.052;8.354;2023-04-25T15:48:34;11.10;99.90
16955;DHT22;8594;52.052;8.354;2023-04-25T15:51:01;11.10;99.90
16955;DHT22;8594;52.052;8.354;2023-04-25T15:53:28;11.20;99.90
16955;DHT22;8594;52.052;8.354;2023-04-25T15:55:55;11.20;99.90
16955;DHT22;8594;52.052;8.354;2023-04-25T15:58:22;11.30;99.90
16955;DHT22;8594;52.052;8.354;2023-04-25T16:00:48;11.20;99.90
16955;DHT22;8594;52.052;8.354;2023-04-25T16:03:17;11.20;99.90